createdAt,value
2022-12-17T00:00:44.030Z,10.30
2022-12-17T00:03:30.622Z,10.30
2022-12-17T00:06:15.983Z,10.27
2022-12-17T00:09:03.269Z,10.53
2022-12-17T00:11:49.287Z,10.47
2022-12-17T00:14:34.765Z,9.33
2022-12-17T00:17:20.450Z,10.13
2022-12-17T00:20:06.073Z,9.57
2022-12-17T00:22:51.748Z,10.23
2022-12-17T00:25:40.887Z,9.90
2022-12-17T00:28:28.688Z,9.33
2022-12-17T00:31:14.389Z,10.20
2022-12-17T00:34:00.498Z,9.43
2022-12-17T00:36:46.851Z,10.60
2022-12-17T00:39:32.663Z,9.97
2022-12-17T00:42:19.590Z,9.77
2022-12-17T00:45:05.272Z,9.17
2022-12-17T00:47:50.851Z,8.90
2022-12-17T00:50:36.349Z,9.53
2022-12-17T00:53:22.061Z,9.07
2022-12-17T00:56:07.421Z,8.43
2022-12-17T00:58:54.571Z,8.43
2022-12-17T01:01:40.186Z,8.67
2022-12-17T01:04:26.852Z,9.03
2022-12-17T01:07:12.541Z,9.90
2022-12-17T01:09:58.001Z,9.60
2022-12-17T01:12:43.368Z,9.37
2022-12-17T01:15:30.545Z,9.80
2022-12-17T01:18:16.372Z,10.07
2022-12-17T01:21:02.273Z,9.27
2022-12-17T01:23:47.882Z,8.37
2022-12-17T01:26:33.264Z,8.83
2022-12-17T01:29:30.357Z,8.67
2022-12-17T01:32:17.716Z,8.37
2022-12-17T01:35:03.200Z,8.77
2022-12-17T01:37:48.891Z,8.43
2022-12-17T01:40:34.978Z,8.20
2022-12-17T01:43:21.026Z,7.83
2022-12-17T01:46:08.243Z,8.70
2022-12-17T01:49:00.443Z,7.77
2022-12-17T01:51:48.125Z,8.53
2022-12-17T01:54:43.217Z,8.47
2022-12-17T01:57:28.788Z,7.80
2022-12-17T02:00:18.973Z,7.77
2022-12-17T02:03:04.452Z,7.30
2022-12-17T02:06:01.371Z,7.90
2022-12-17T02:08:55.432Z,8.10
2022-12-17T02:11:49.122Z,8.20
2022-12-17T02:14:41.695Z,8.13
2022-12-17T02:17:33.946Z,7.93
2022-12-17T02:20:38.175Z,8.53
2022-12-17T02:23:35.510Z,9.03
2022-12-17T02:26:25.117Z,8.60
2022-12-17T02:29:12.098Z,8.57
2022-12-17T02:32:00.783Z,8.00
2022-12-17T02:34:49.770Z,8.13
2022-12-17T02:37:36.036Z,8.33
2022-12-17T02:40:22.276Z,7.90
2022-12-17T02:43:13.609Z,7.73
2022-12-17T02:46:00.915Z,8.37
2022-12-17T02:48:46.902Z,7.83
2022-12-17T02:51:32.677Z,8.07
2022-12-17T02:54:22.313Z,8.30
2022-12-17T02:57:08.494Z,8.37
2022-12-17T02:59:54.024Z,7.90
2022-12-17T03:02:41.309Z,7.73
2022-12-17T03:05:45.802Z,8.00
2022-12-17T03:08:32.155Z,7.10
2022-12-17T03:11:18.235Z,7.37
2022-12-17T03:14:03.960Z,7.37
2022-12-17T03:16:49.740Z,7.50
2022-12-17T03:19:36.861Z,7.43
2022-12-17T03:22:22.538Z,7.00
2022-12-17T03:25:07.955Z,6.43
2022-12-17T03:27:53.367Z,7.60
2022-12-17T03:30:47.155Z,7.17
2022-12-17T03:33:35.472Z,7.43
2022-12-17T03:36:23.050Z,7.97
2022-12-17T03:39:08.319Z,7.37
2022-12-17T03:41:54.323Z,6.03
2022-12-17T03:44:51.191Z,7.80
2022-12-17T03:47:36.860Z,7.37
2022-12-17T03:50:23.274Z,7.50
2022-12-17T03:53:11.187Z,7.77
2022-12-17T03:55:56.779Z,7.00
2022-12-17T03:58:42.585Z,6.57
2022-12-17T04:01:28.183Z,7.27
2022-12-17T04:04:14.134Z,7.60
2022-12-17T04:06:59.830Z,7.80
2022-12-17T04:09:46.945Z,8.40
2022-12-17T04:12:32.314Z,8.27
2022-12-17T04:15:17.867Z,7.83
2022-12-17T04:18:03.601Z,7.83
2022-12-17T04:20:48.996Z,8.50
2022-12-17T04:23:34.819Z,8.23
2022-12-17T04:26:21.892Z,8.47
2022-12-17T04:29:07.197Z,9.33
2022-12-17T04:31:53.188Z,8.60
2022-12-17T04:34:38.816Z,8.50
2022-12-17T04:37:25.049Z,9.63
2022-12-17T04:40:10.579Z,8.37
2022-12-17T04:42:57.654Z,8.67
2022-12-17T04:45:43.046Z,8.33
2022-12-17T04:48:28.403Z,9.50
2022-12-17T04:51:14.006Z,8.43
2022-12-17T04:53:59.493Z,8.80
2022-12-17T04:56:45.099Z,9.70
2022-12-17T04:59:32.347Z,9.07
2022-12-17T05:02:17.751Z,9.60
2022-12-17T05:05:03.214Z,9.23
2022-12-17T05:07:48.536Z,9.27
2022-12-17T05:10:34.608Z,9.57
2022-12-17T05:13:20.765Z,9.23
2022-12-17T05:16:07.781Z,9.70
2022-12-17T05:18:53.524Z,9.10
2022-12-17T05:21:39.250Z,9.20
2022-12-17T05:24:25.315Z,8.97
2022-12-17T05:27:11.080Z,9.37
2022-12-17T05:29:53.071Z,11.43
2022-12-17T05:32:40.285Z,10.43
2022-12-17T05:35:26.709Z,10.50
2022-12-17T05:38:12.240Z,10.40
2022-12-17T05:40:58.280Z,10.73
2022-12-17T05:43:43.859Z,10.90
2022-12-17T05:46:29.237Z,10.80
2022-12-17T05:49:12.801Z,11.60
2022-12-17T05:52:03.707Z,11.10
2022-12-17T05:54:49.255Z,11.90
2022-12-17T05:57:34.704Z,10.97
2022-12-17T06:00:20.276Z,11.90
2022-12-17T06:03:05.704Z,13.07
2022-12-17T06:05:52.543Z,12.33
2022-12-17T06:08:37.939Z,11.90
2022-12-17T06:11:23.745Z,11.80
2022-12-17T06:14:09.363Z,12.13
2022-12-17T06:16:55.491Z,12.13
2022-12-17T06:19:41.438Z,12.37
2022-12-17T06:22:29.061Z,12.70
2022-12-17T06:25:14.731Z,13.67
2022-12-17T06:28:00.361Z,13.03
2022-12-17T06:30:45.910Z,13.80
2022-12-17T06:33:31.879Z,13.13
2022-12-17T06:36:22.451Z,12.17
2022-12-17T06:39:09.751Z,11.37
2022-12-17T06:42:02.182Z,10.53
2022-12-17T06:44:50.041Z,12.03
2022-12-17T06:47:35.678Z,10.93
2022-12-17T06:50:21.736Z,13.30
2022-12-17T06:53:15.186Z,12.33
2022-12-17T06:56:01.989Z,12.77
2022-12-17T06:58:44.378Z,12.80
2022-12-17T07:01:30.046Z,12.10
2022-12-17T07:04:15.778Z,12.13
2022-12-17T07:07:01.415Z,12.90
2022-12-17T07:09:47.460Z,13.43
2022-12-17T07:12:34.282Z,12.60
2022-12-17T07:15:20.274Z,12.80
2022-12-17T07:18:13.837Z,12.00
2022-12-17T07:20:59.656Z,11.67
2022-12-17T07:23:45.486Z,12.20
2022-12-17T07:26:31.308Z,12.07
2022-12-17T07:29:18.268Z,11.00
2022-12-17T07:32:04.184Z,11.90
2022-12-17T07:34:50.109Z,11.43
2022-12-17T07:37:35.410Z,11.90
2022-12-17T07:40:21.331Z,12.23
2022-12-17T07:43:06.832Z,12.10
2022-12-17T07:45:59.603Z,11.87
2022-12-17T07:48:44.888Z,11.30
2022-12-17T07:51:30.401Z,11.50
2022-12-17T07:54:16.007Z,12.53
2022-12-17T07:57:01.522Z,12.57
2022-12-17T07:59:47.407Z,11.93
2022-12-17T08:02:34.539Z,12.03
2022-12-17T08:05:20.249Z,11.23
2022-12-17T08:08:05.911Z,12.27
2022-12-17T08:10:51.919Z,12.60
2022-12-17T08:13:38.884Z,11.73
2022-12-17T08:16:25.615Z,12.93
2022-12-17T08:19:09.359Z,12.97
2022-12-17T08:21:55.386Z,11.30
2022-12-17T08:24:41.447Z,12.97
2022-12-17T08:27:27.018Z,11.40
2022-12-17T08:30:12.501Z,12.80
2022-12-17T08:32:58.328Z,11.67
2022-12-17T08:35:45.282Z,10.63
2022-12-17T08:38:31.105Z,12.88
2022-12-17T08:41:18.907Z,11.73
2022-12-17T08:44:04.274Z,11.73
2022-12-17T08:46:50.151Z,12.43
2022-12-17T08:49:35.473Z,10.17
2022-12-17T08:52:22.663Z,12.07
2022-12-17T08:55:08.100Z,11.63
2022-12-17T08:57:53.868Z,16.33
2022-12-17T09:00:39.468Z,13.20
2022-12-17T09:03:25.215Z,12.53
2022-12-17T09:06:11.514Z,12.20
2022-12-17T09:08:58.929Z,12.87
2022-12-17T09:11:44.336Z,10.97
2022-12-17T09:14:41.572Z,11.57
2022-12-17T09:17:27.235Z,11.43
2022-12-17T09:20:12.642Z,11.83
2022-12-17T09:22:58.729Z,12.07
2022-12-17T09:25:46.649Z,12.53
2022-12-17T09:28:32.187Z,12.10
2022-12-17T09:31:18.108Z,11.83
2022-12-17T09:34:04.210Z,14.10
2022-12-17T09:36:51.288Z,11.30
2022-12-17T09:39:37.038Z,11.43
2022-12-17T09:42:33.277Z,11.77
2022-12-17T09:45:25.539Z,11.17
2022-12-17T09:48:32.568Z,11.30
2022-12-17T09:51:19.205Z,11.73
2022-12-17T09:54:08.432Z,10.90
2022-12-17T09:56:55.960Z,11.70
2022-12-17T09:59:48.127Z,11.70
2022-12-17T10:02:37.628Z,12.40
2022-12-17T10:05:26.997Z,10.33
2022-12-17T10:08:13.608Z,11.50
2022-12-17T10:11:03.972Z,10.60
2022-12-17T10:13:49.787Z,11.13
2022-12-17T10:16:46.427Z,11.27
2022-12-17T10:19:41.467Z,9.43
2022-12-17T10:22:29.055Z,11.17
2022-12-17T10:25:21.559Z,12.87
2022-12-17T10:28:18.533Z,11.63
2022-12-17T10:31:06.517Z,11.07
2022-12-17T10:33:59.209Z,12.83
2022-12-17T10:36:46.902Z,10.93
2022-12-17T10:39:38.934Z,9.67
2022-12-17T10:42:39.160Z,10.57
2022-12-17T10:45:40.573Z,12.43
2022-12-17T10:48:36.557Z,11.77
2022-12-17T10:51:25.556Z,11.03
2022-12-17T10:54:12.166Z,11.40
2022-12-17T10:56:58.036Z,11.47
2022-12-17T10:59:52.030Z,25.33
2022-12-17T11:02:44.499Z,12.43
2022-12-17T11:05:33.365Z,13.17
2022-12-17T11:08:22.119Z,13.67
2022-12-17T11:11:08.241Z,12.33
2022-12-17T11:13:59.941Z,12.10
2022-12-17T11:16:49.450Z,11.40
2022-12-17T11:19:49.708Z,11.33
2022-12-17T11:22:48.492Z,12.43
2022-12-17T11:25:57.625Z,12.53
2022-12-17T11:28:45.903Z,12.40
2022-12-17T11:31:51.707Z,10.67
2022-12-17T11:34:48.887Z,11.37
2022-12-17T11:37:38.400Z,11.90
2022-12-17T11:40:39.601Z,11.20
2022-12-17T11:43:34.533Z,12.17
2022-12-17T11:46:35.389Z,12.57
2022-12-17T11:49:33.107Z,12.83
2022-12-17T11:52:25.721Z,12.83
2022-12-17T11:55:19.388Z,13.20
2022-12-17T11:58:14.686Z,12.73
2022-12-17T12:01:22.939Z,11.97
2022-12-17T12:04:19.156Z,13.37
2022-12-17T12:07:16.328Z,13.30
2022-12-17T12:10:07.764Z,13.10
2022-12-17T12:13:06.628Z,12.90
2022-12-17T12:16:03.397Z,15.97
2022-12-17T12:19:02.224Z,13.50
2022-12-17T12:21:57.309Z,13.57
2022-12-17T12:25:00.211Z,11.43
2022-12-17T12:27:54.638Z,12.57
2022-12-17T12:30:53.537Z,13.07
2022-12-17T12:33:49.202Z,13.53
2022-12-17T12:36:39.652Z,13.00
2022-12-17T12:39:30.930Z,13.53
2022-12-17T12:42:21.753Z,14.23
2022-12-17T12:45:18.762Z,13.17
2022-12-17T12:48:11.983Z,13.83
2022-12-17T12:51:07.238Z,13.20
2022-12-17T12:53:55.285Z,13.03
2022-12-17T12:56:46.305Z,13.57
2022-12-17T12:59:43.585Z,14.67
2022-12-17T13:02:48.879Z,14.33
2022-12-17T13:05:34.965Z,12.70
2022-12-17T13:08:05.375Z,14.90
2022-12-17T13:10:36.181Z,13.63
2022-12-17T13:13:13.819Z,13.73
2022-12-17T13:15:45.304Z,14.30
2022-12-17T13:18:25.059Z,15.40
2022-12-17T13:21:01.768Z,17.17
2022-12-17T13:23:40.281Z,12.90
2022-12-17T13:26:25.391Z,13.07
2022-12-17T13:29:03.091Z,12.10
2022-12-17T13:31:42.413Z,12.27
2022-12-17T13:34:18.239Z,12.77
2022-12-17T13:36:55.901Z,13.30
2022-12-17T13:39:35.234Z,13.10
2022-12-17T13:42:06.192Z,13.20
2022-12-17T13:44:41.391Z,13.27
2022-12-17T13:47:22.079Z,13.50
2022-12-17T13:50:24.474Z,14.53
2022-12-17T13:52:41.784Z,14.43
2022-12-17T13:55:18.676Z,12.90
2022-12-17T13:57:50.365Z,13.73
2022-12-17T14:00:24.495Z,23.97
2022-12-17T14:02:53.730Z,16.70
2022-12-17T14:05:28.193Z,14.67
2022-12-17T14:07:59.883Z,13.83
2022-12-17T14:10:29.437Z,14.67
2022-12-17T14:13:05.858Z,14.17
2022-12-17T14:15:34.994Z,13.87
2022-12-17T14:18:04.498Z,15.13
2022-12-17T14:20:35.558Z,13.50
2022-12-17T14:23:07.076Z,14.23
2022-12-17T14:25:38.163Z,12.20
2022-12-17T14:28:22.094Z,13.07
2022-12-17T14:31:24.956Z,13.93
2022-12-17T14:33:40.684Z,12.80
2022-12-17T14:36:16.313Z,14.10
2022-12-17T14:38:54.611Z,13.50
2022-12-17T14:41:49.457Z,12.90
2022-12-17T14:44:22.181Z,12.97
2022-12-17T14:46:51.478Z,13.63
2022-12-17T14:49:21.941Z,14.07
2022-12-17T14:51:51.181Z,13.77
2022-12-17T14:54:24.482Z,13.53
2022-12-17T14:56:54.592Z,16.90
2022-12-17T14:59:40.992Z,14.07
2022-12-17T15:02:20.949Z,14.97
2022-12-17T15:04:49.582Z,14.63
2022-12-17T15:07:25.479Z,13.87
2022-12-17T15:09:55.364Z,15.33
2022-12-17T15:12:24.888Z,15.97
2022-12-17T15:14:54.585Z,15.13
2022-12-17T15:17:23.789Z,16.13
2022-12-17T15:19:56.248Z,15.30
2022-12-17T15:22:25.282Z,15.87
2022-12-17T15:24:53.740Z,18.23
2022-12-17T15:27:22.275Z,19.73
2022-12-17T15:29:50.811Z,18.50
2022-12-17T15:32:21.976Z,18.20
2022-12-17T15:34:51.006Z,18.83
2022-12-17T15:37:25.358Z,18.57
2022-12-17T15:39:54.031Z,20.50
2022-12-17T15:42:39.772Z,20.53
2022-12-17T15:45:09.824Z,17.67
2022-12-17T15:47:41.129Z,20.47
2022-12-17T15:50:10.693Z,24.10
2022-12-17T15:52:39.430Z,22.73
2022-12-17T15:55:08.778Z,23.27
2022-12-17T15:57:37.056Z,20.60
2022-12-17T16:00:06.356Z,20.53
2022-12-17T16:02:34.950Z,23.13
2022-12-17T16:05:05.630Z,19.87
2022-12-17T16:07:37.143Z,20.23
2022-12-17T16:10:06.242Z,19.33
2022-12-17T16:12:34.906Z,18.27
2022-12-17T16:15:03.468Z,20.10
2022-12-17T16:17:31.912Z,18.27
2022-12-17T16:20:00.699Z,17.90
2022-12-17T16:22:32.444Z,17.83
2022-12-17T16:25:00.738Z,17.87
2022-12-17T16:27:29.135Z,15.93
2022-12-17T16:30:00.798Z,14.57
2022-12-17T16:32:34.551Z,16.97
2022-12-17T16:35:05.379Z,14.87
2022-12-17T16:37:35.542Z,13.87
2022-12-17T16:40:04.421Z,14.27
2022-12-17T16:42:33.625Z,15.87
2022-12-17T16:45:02.059Z,16.80
2022-12-17T16:47:33.550Z,16.07
2022-12-17T16:50:18.757Z,15.40
2022-12-17T16:52:50.008Z,14.13
2022-12-17T16:55:18.575Z,14.67
2022-12-17T16:57:49.621Z,14.90
2022-12-17T17:00:18.197Z,15.53
2022-12-17T17:02:53.279Z,13.87
2022-12-17T17:05:22.055Z,14.13
2022-12-17T17:07:52.326Z,14.03
2022-12-17T17:10:20.652Z,17.23
2022-12-17T17:12:49.007Z,15.03
2022-12-17T17:15:17.654Z,15.07
2022-12-17T17:17:54.760Z,15.83
2022-12-17T17:20:24.678Z,14.77
2022-12-17T17:22:57.568Z,14.60
2022-12-17T17:25:38.521Z,15.17
2022-12-17T17:28:14.736Z,15.33
2022-12-17T17:30:43.111Z,14.27
2022-12-17T17:33:12.004Z,16.80
2022-12-17T17:35:41.692Z,15.73
2022-12-17T17:38:11.874Z,15.90
2022-12-17T17:40:40.454Z,16.17
2022-12-17T17:43:10.695Z,15.13
2022-12-17T17:45:40.464Z,16.03
2022-12-17T17:48:08.702Z,16.53
2022-12-17T17:50:37.041Z,16.70
2022-12-17T17:53:05.469Z,16.67
2022-12-17T17:55:37.613Z,16.93
2022-12-17T17:58:06.496Z,17.63
2022-12-17T18:00:34.802Z,15.97
2022-12-17T18:03:03.366Z,15.90
2022-12-17T18:05:33.122Z,17.47
2022-12-17T18:08:04.110Z,17.17
2022-12-17T18:10:32.736Z,17.37
2022-12-17T18:13:20.131Z,15.17
2022-12-17T18:15:48.542Z,17.00
2022-12-17T18:18:16.903Z,18.33
2022-12-17T18:20:45.214Z,18.43
2022-12-17T18:23:13.566Z,17.10
2022-12-17T18:25:41.955Z,18.00
2022-12-17T18:28:11.954Z,18.43
2022-12-17T18:30:40.522Z,18.50
2022-12-17T18:33:08.750Z,18.47
2022-12-17T18:35:37.354Z,19.00
2022-12-17T18:38:05.670Z,18.53
2022-12-17T18:40:36.073Z,18.87
2022-12-17T18:43:22.132Z,16.30
2022-12-17T18:45:52.917Z,17.53
2022-12-17T18:48:21.978Z,19.73
2022-12-17T18:50:50.397Z,19.33
2022-12-17T18:53:18.610Z,20.13
2022-12-17T18:55:47.106Z,17.70
2022-12-17T18:58:15.590Z,18.43
2022-12-17T19:00:43.916Z,17.70
2022-12-17T19:03:13.771Z,18.70
2022-12-17T19:05:46.491Z,26.87
2022-12-17T19:08:16.379Z,19.13
2022-12-17T19:10:44.810Z,18.47
2022-12-17T19:13:13.467Z,19.70
2022-12-17T19:15:41.920Z,17.83
2022-12-17T19:18:10.256Z,15.97
2022-12-17T19:20:39.987Z,15.70
2022-12-17T19:23:08.432Z,15.10
2022-12-17T19:25:36.773Z,15.63
2022-12-17T19:28:05.460Z,16.43
2022-12-17T19:30:34.368Z,17.87
2022-12-17T19:33:02.702Z,18.87
2022-12-17T19:35:30.983Z,17.27
2022-12-17T19:38:00.831Z,15.73
2022-12-17T19:40:29.267Z,16.93
2022-12-17T19:42:57.965Z,17.20
2022-12-17T19:45:26.599Z,17.37
2022-12-17T19:47:55.208Z,16.27
2022-12-17T19:50:23.442Z,17.30
2022-12-17T19:52:51.829Z,17.77
2022-12-17T19:55:22.165Z,17.87
2022-12-17T19:57:50.677Z,16.77
2022-12-17T20:00:19.431Z,17.20
2022-12-17T20:02:47.825Z,19.33
2022-12-17T20:05:16.264Z,20.67
2022-12-17T20:07:44.775Z,18.13
2022-12-17T20:10:13.044Z,17.57
2022-12-17T20:12:42.985Z,17.27
2022-12-17T20:15:11.884Z,18.90
2022-12-17T20:17:40.197Z,17.37
2022-12-17T20:20:09.763Z,18.40
2022-12-17T20:22:38.101Z,17.20
2022-12-17T20:25:09.430Z,19.27
2022-12-17T20:27:37.777Z,18.27
2022-12-17T20:30:09.356Z,39.43
2022-12-17T20:32:37.945Z,18.17
2022-12-17T20:35:07.156Z,18.87
2022-12-17T20:37:35.840Z,17.90
2022-12-17T20:40:04.673Z,18.20
2022-12-17T20:42:33.149Z,18.90
2022-12-17T20:45:02.138Z,17.97
2022-12-17T20:47:32.003Z,18.20
2022-12-17T20:50:00.255Z,20.00
2022-12-17T20:52:28.547Z,18.87
2022-12-17T20:54:56.858Z,19.33
2022-12-17T20:57:25.146Z,20.90
2022-12-17T20:59:53.482Z,20.03
2022-12-17T21:02:21.837Z,18.23
2022-12-17T21:04:51.796Z,19.83
2022-12-17T21:07:20.573Z,19.00
2022-12-17T21:09:48.953Z,20.57
2022-12-17T21:12:17.191Z,20.57
2022-12-17T21:14:46.019Z,17.87
2022-12-17T21:17:17.513Z,20.92
2022-12-17T21:19:45.951Z,21.88
2022-12-17T21:22:16.133Z,20.02
2022-12-17T21:24:44.544Z,20.27
2022-12-17T21:27:15.147Z,20.60
2022-12-17T21:29:43.494Z,19.57
2022-12-17T21:32:11.975Z,18.48
2022-12-17T21:34:40.820Z,18.23
2022-12-17T21:37:11.150Z,17.67
2022-12-17T21:39:41.116Z,20.73
2022-12-17T21:42:26.642Z,21.30
2022-12-17T21:44:55.073Z,22.50
2022-12-17T21:47:24.570Z,20.97
2022-12-17T21:49:52.930Z,20.90
2022-12-17T21:52:21.335Z,20.40
2022-12-17T21:54:51.556Z,19.40
2022-12-17T21:57:19.747Z,23.13
2022-12-17T21:59:48.489Z,24.00
2022-12-17T22:02:17.345Z,21.63
2022-12-17T22:04:45.889Z,19.93
2022-12-17T22:07:23.454Z,18.07
2022-12-17T22:10:23.080Z,18.57
2022-12-17T22:13:08.333Z,18.00
2022-12-17T22:15:39.508Z,18.13
2022-12-17T22:18:16.840Z,18.90
2022-12-17T22:20:44.983Z,20.13
2022-12-17T22:23:13.633Z,17.87
2022-12-17T22:25:43.945Z,17.33
2022-12-17T22:28:12.451Z,17.60
2022-12-17T22:30:58.244Z,17.70
2022-12-17T22:33:44.297Z,16.95
2022-12-17T22:39:19.739Z,16.30
2022-12-17T22:42:50.389Z,15.85
2022-12-17T22:44:49.641Z,16.95
2022-12-17T22:45:09.299Z,15.77
2022-12-17T22:47:39.266Z,17.75
2022-12-17T22:50:08.156Z,16.57
2022-12-17T22:52:36.859Z,17.55
2022-12-17T22:55:06.465Z,15.93
2022-12-17T22:57:38.481Z,19.73
2022-12-17T23:00:18.954Z,17.67
2022-12-17T23:02:47.441Z,17.02
2022-12-17T23:05:15.829Z,17.35
2022-12-17T23:07:44.225Z,16.40
2022-12-17T23:10:12.596Z,15.30
2022-12-17T23:12:55.086Z,14.05
2022-12-17T23:15:27.639Z,15.38
2022-12-17T23:18:00.928Z,16.20
2022-12-17T23:20:31.116Z,15.53
2022-12-17T23:23:03.242Z,16.52
2022-12-17T23:25:32.143Z,16.60
2022-12-17T23:28:01.830Z,18.63
2022-12-17T23:30:30.046Z,16.95
2022-12-17T23:32:58.449Z,15.13
2022-12-17T23:35:26.656Z,16.27
2022-12-17T23:37:55.117Z,16.33
2022-12-17T23:40:23.456Z,17.25
2022-12-17T23:42:51.757Z,16.38
2022-12-17T23:45:23.268Z,14.73
2022-12-17T23:47:51.600Z,15.30
2022-12-17T23:50:20.625Z,15.80
2022-12-17T23:52:48.823Z,15.48
2022-12-17T23:55:17.271Z,15.82
2022-12-17T23:57:45.514Z,15.05
